Terminal Aerodrome Forecast
Issued by NWS Cleveland, OH

Home | Current Version | Previous Version | Text Only | Print | Product List | Glossary Off
Versions: 1 2 3 4 5 6 7 8 9 10 11 12 13 14 15

912
FTUS41 KCLE 231139
TAFMFD
TAF
KMFD 231139Z 2312/2412 VRB03KT P6SM BKN150
     FM231500 30005KT P6SM SCT100 BKN250
     FM232200 35007KT P6SM SCT050 OVC100
     FM240300 01007KT 4SM BR BKN008=

USA.gov is the U.S. government's official web portal to all federal, state and local government web resources and services.